Time;durP1;ratioP1;P1;durP2;ratioP2;P2;SDS_P1;SDS_P2;PMS_P1;PMS_P2;Temp;Humidity;BMP_temperature;BMP_pressure;BME280_temperature;BME280_humidity;BME280_pressure;Samples;Min_cycle;Max_cycle;Signal;HPM_P1;HPM_P2
2023/12/20 00:04:09;;;;;;;16.50;8.40;;;;;;;10.23;37.42;98459.85;231885;203;138710;-57
2023/12/20 00:09:12;;;;;;;17.20;8.10;;;;;;;10.16;37.62;98456.98;231714;198;153514;-58
2023/12/20 00:14:15;;;;;;;16.70;9.20;;;;;;;10.11;37.75;98453.44;231689;199;138174;-57
2023/12/20 00:19:18;;;;;;;18.00;8.80;;;;;;;10.06;38.04;98450.07;231685;198;138081;-57
2023/12/20 00:24:22;;;;;;;16.90;8.30;;;;;;;10.04;38.21;98443.08;231713;198;153053;-59
2023/12/20 00:29:25;;;;;;;17.80;7.60;;;;;;;10.04;38.33;98444.11;231789;198;138198;-59
2023/12/20 00:34:28;;;;;;;13.20;7.30;;;;;;;10.02;38.36;98439.32;231856;199;137936;-54
2023/12/20 00:39:32;;;;;;;13.90;7.40;;;;;;;10.01;38.43;98423.12;231653;198;153057;-59
2023/12/20 00:44:36;;;;;;;13.40;7.20;;;;;;;9.98;38.55;98420.82;231723;198;139312;-58
2023/12/20 00:49:39;;;;;;;21.20;7.50;;;;;;;9.91;38.65;98412.96;231760;199;137704;-59
2023/12/20 00:54:42;;;;;;;13.10;7.20;;;;;;;9.86;38.58;98406.98;231792;198;153123;-59
2023/12/20 00:59:45;;;;;;;13.10;6.90;;;;;;;9.87;38.65;98411.84;231672;198;139296;-58
2023/12/20 01:04:49;;;;;;;15.70;7.70;;;;;;;9.91;38.41;98407.67;231843;199;137802;-59
2023/12/20 01:09:52;;;;;;;12.90;6.60;;;;;;;9.91;37.99;98408.55;231837;198;153834;-57
2023/12/20 01:14:56;;;;;;;10.80;6.10;;;;;;;9.97;37.72;98406.16;231394;199;139315;-60
2023/12/20 01:19:59;;;;;;;11.70;5.70;;;;;;;10.05;37.20;98407.23;231694;198;137301;-58
2023/12/20 01:25:02;;;;;;;8.40;4.60;;;;;;;10.07;36.89;98392.54;231768;206;154217;-61
2023/12/20 01:30:08;;;;;;;11.20;5.70;;;;;;;10.09;36.70;98386.56;231661;199;137648;-59
2023/12/20 01:35:12;;;;;;;10.00;5.00;;;;;;;10.13;36.58;98382.35;231734;205;138141;-58
2023/12/20 01:40:16;;;;;;;8.40;5.30;;;;;;;10.13;36.65;98365.73;231810;198;153289;-59
2023/12/20 01:45:19;;;;;;;11.90;6.10;;;;;;;10.12;36.64;98348.45;231675;198;138258;-58
2023/12/20 01:50:23;;;;;;;11.20;5.80;;;;;;;10.10;36.65;98336.30;231711;199;137607;-59
2023/12/20 01:55:33;;;;;;;11.10;5.30;;;;;;;10.06;36.75;98329.14;231669;199;154028;-58
2023/12/20 02:00:37;;;;;;;11.70;6.10;;;;;;;10.06;36.85;98316.77;231727;198;138062;-59
2023/12/20 02:05:40;;;;;;;10.90;6.40;;;;;;;10.06;37.05;98312.51;231671;199;137780;-59
2023/12/20 02:10:43;;;;;;;11.40;5.60;;;;;;;10.01;37.15;98302.59;231830;198;153134;-59
2023/12/20 02:15:47;;;;;;;9.70;5.30;;;;;;;9.95;37.03;98302.83;231830;199;138105;-58
2023/12/20 02:20:50;;;;;;;8.40;4.40;;;;;;;9.90;36.90;98296.11;231723;199;140450;-60
2023/12/20 02:25:54;;;;;;;8.80;4.20;;;;;;;9.87;36.73;98292.92;231755;202;154117;-57
2023/12/20 02:30:57;;;;;;;7.60;4.30;;;;;;;9.86;36.76;98291.59;231722;198;137736;-59
2023/12/20 02:36:01;;;;;;;6.40;4.40;;;;;;;9.85;36.60;98291.50;231764;198;137763;-59
2023/12/20 02:41:04;;;;;;;10.20;4.60;;;;;;;9.83;36.69;98283.48;231734;205;153683;-57
2023/12/20 02:46:07;;;;;;;9.50;4.90;;;;;;;9.79;36.77;98278.84;231856;197;138253;-58
2023/12/20 02:51:10;;;;;;;7.70;4.30;;;;;;;9.71;36.88;98274.44;231793;202;137647;-60
2023/12/20 02:56:14;;;;;;;5.20;3.30;;;;;;;9.66;36.75;98274.80;231727;202;154076;-59
2023/12/20 03:01:17;;;;;;;7.50;3.60;;;;;;;9.68;36.49;98287.21;231660;203;138637;-58
2023/12/20 03:06:20;;;;;;;7.30;3.30;;;;;;;9.70;36.24;98286.34;231807;205;137754;-58
2023/12/20 03:11:27;;;;;;;5.80;3.60;;;;;;;9.72;35.93;98287.44;231721;198;156152;-59
2023/12/20 03:16:32;;;;;;;6.40;3.60;;;;;;;9.74;35.90;98285.89;231762;206;137857;-57
2023/12/20 03:21:38;;;;;;;3.90;3.10;;;;;;;9.81;35.79;98281.92;231793;203;138083;-57
2023/12/20 03:26:41;;;;;;;6.10;3.00;;;;;;;9.83;35.71;98275.20;231756;203;153909;-61
2023/12/20 03:31:45;;;;;;;4.90;3.10;;;;;;;9.85;35.75;98272.01;231768;198;138615;-62
2023/12/20 03:36:49;;;;;;;6.00;3.20;;;;;;;9.89;35.60;98265.73;231734;198;140443;-61
2023/12/20 03:41:52;;;;;;;4.60;3.10;;;;;;;9.90;35.57;98279.83;231682;198;153418;-59
2023/12/20 03:46:55;;;;;;;4.80;3.40;;;;;;;9.90;35.76;98286.90;231777;199;139078;-60
2023/12/20 03:51:58;;;;;;;5.70;3.10;;;;;;;9.91;35.85;98290.38;231862;199;137432;-62
2023/12/20 03:57:02;;;;;;;6.80;3.60;;;;;;;9.90;35.77;98293.06;231763;199;154185;-59
2023/12/20 04:02:05;;;;;;;6.10;3.30;;;;;;;9.95;35.79;98285.27;231725;199;138430;-58
2023/12/20 04:07:09;;;;;;;6.10;3.40;;;;;;;9.99;35.81;98278.46;231703;198;137608;-59
2023/12/20 04:12:12;;;;;;;5.40;3.30;;;;;;;9.95;35.99;98269.15;231748;205;153567;-59
2023/12/20 04:17:16;;;;;;;5.60;3.50;;;;;;;9.92;36.03;98275.91;231750;198;137923;-61
2023/12/20 04:22:19;;;;;;;7.40;3.80;;;;;;;9.92;36.01;98283.02;231852;199;137914;-60
2023/12/20 04:27:22;;;;;;;6.20;3.70;;;;;;;9.97;35.90;98276.15;231739;202;155498;-61
2023/12/20 04:32:26;;;;;;;5.90;3.40;;;;;;;9.99;35.83;98273.13;231674;199;136999;-61
2023/12/20 04:37:29;;;;;;;7.00;3.50;;;;;;;10.01;35.81;98278.46;231716;198;138003;-60
2023/12/20 04:42:32;;;;;;;5.70;3.20;;;;;;;9.95;36.01;98275.36;231718;198;153280;-59
2023/12/20 04:47:35;;;;;;;7.50;3.20;;;;;;;9.92;36.42;98282.89;231679;199;138263;-61
2023/12/20 04:52:39;;;;;;;9.60;3.20;;;;;;;9.81;37.02;98283.48;231886;198;139344;-57
2023/12/20 04:57:42;;;;;;;4.60;3.00;;;;;;;9.69;38.01;98290.86;231724;205;153159;-58
2023/12/20 05:02:46;;;;;;;3.80;2.80;;;;;;;9.58;38.70;98298.38;231757;198;138473;-57
2023/12/20 05:07:49;;;;;;;5.50;3.00;;;;;;;9.50;39.88;98303.35;231737;198;138815;-57
2023/12/20 05:12:52;;;;;;;6.70;2.60;;;;;;;9.38;41.02;98302.08;231767;198;156220;-58
2023/12/20 05:17:56;;;;;;;3.50;2.60;;;;;;;9.37;42.40;98300.69;231385;203;138695;-59
2023/12/20 05:22:59;;;;;;;4.00;2.80;;;;;;;9.27;44.48;98301.38;231726;199;137685;-58
2023/12/20 05:28:03;;;;;;;3.50;2.50;;;;;;;9.08;46.63;98301.14;231880;198;155352;-57
2023/12/20 05:33:06;;;;;;;2.30;1.80;;;;;;;9.02;48.50;98302.05;231696;202;137549;-56
2023/12/20 05:38:09;;;;;;;3.70;2.60;;;;;;;8.89;50.43;98291.41;231767;202;138887;-58
2023/12/20 05:43:12;;;;;;;16.60;11.00;;;;;;;8.81;52.21;98284.89;231785;198;153213;-58
2023/12/20 05:48:16;;;;;;;5.30;2.90;;;;;;;8.75;53.29;98289.87;231580;198;137809;-58
2023/12/20 05:53:19;;;;;;;18.70;14.30;;;;;;;8.62;54.52;98289.52;231773;198;137244;-56
2023/12/20 05:58:22;;;;;;;5.80;3.30;;;;;;;8.46;56.06;98287.39;231870;203;153887;-60
2023/12/20 06:03:25;;;;;;;3.10;2.50;;;;;;;8.37;56.53;98287.58;231755;199;137817;-58
2023/12/20 06:08:28;;;;;;;5.10;2.60;;;;;;;8.32;57.21;98286.17;231733;198;138144;-58
2023/12/20 06:13:32;;;;;;;4.00;2.50;;;;;;;8.15;58.24;98297.67;231774;199;153165;-57
2023/12/20 06:18:36;;;;;;;4.10;2.80;;;;;;;8.01;58.97;98311.23;231785;199;138476;-57
2023/12/20 06:23:40;;;;;;;5.20;3.20;;;;;;;7.93;59.79;98314.98;231807;206;137291;-57
2023/12/20 06:28:44;;;;;;;5.00;3.50;;;;;;;7.90;60.20;98311.98;231862;199;153143;-56
2023/12/20 06:33:49;;;;;;;4.90;3.40;;;;;;;7.73;61.17;98312.35;231851;206;138354;-57
2023/12/20 06:38:53;;;;;;;5.10;3.60;;;;;;;7.60;61.86;98315.23;231855;198;138232;-59
2023/12/20 06:43:56;;;;;;;8.40;4.10;;;;;;;7.53;62.22;98317.77;231767;205;154735;-58
2023/12/20 06:48:59;;;;;;;70.00;50.40;;;;;;;7.50;63.25;98310.05;231758;199;137767;-56
2023/12/20 06:54:03;;;;;;;8.40;5.50;;;;;;;7.45;63.95;98314.55;231779;198;137339;-58
2023/12/20 06:59:06;;;;;;;6.30;4.80;;;;;;;7.35;64.37;98308.29;231851;198;154630;-62
2023/12/20 07:04:10;;;;;;;7.60;4.80;;;;;;;7.26;65.13;98310.45;231790;199;139751;-59
2023/12/20 07:09:15;;;;;;;5.90;4.60;;;;;;;7.19;65.49;98315.98;231798;199;142440;-62
2023/12/20 07:14:18;;;;;;;6.20;4.40;;;;;;;7.17;65.71;98315.58;231755;205;153086;-60
2023/12/20 07:19:21;;;;;;;6.20;4.20;;;;;;;7.13;66.23;98316.69;231679;202;138353;-58
2023/12/20 07:24:24;;;;;;;5.70;4.00;;;;;;;7.06;66.27;98324.84;231680;205;137976;-59
2023/12/20 07:29:28;;;;;;;136.70;93.60;;;;;;;7.04;66.44;98325.32;231623;198;155553;-60
2023/12/20 07:34:31;;;;;;;10.00;5.90;;;;;;;7.20;66.57;98322.98;231765;198;138379;-59
2023/12/20 07:39:39;;;;;;;6.90;4.40;;;;;;;7.25;66.35;98325.67;231800;198;138662;-59
2023/12/20 07:44:43;;;;;;;;;;;;;;;7.23;66.35;98331.94;231725;205;153214;-61
2023/12/20 07:49:46;;;;;;;7.60;3.70;;;;;;;7.15;66.68;98331.23;231827;205;137674;-62
2023/12/20 07:54:49;;;;;;;6.00;3.50;;;;;;;7.16;66.68;98333.58;231681;198;138452;-62
2023/12/20 07:59:52;;;;;;;5.80;3.80;;;;;;;7.27;66.88;98334.91;231669;197;154462;-61
2023/12/20 08:04:55;;;;;;;7.70;3.50;;;;;;;7.29;66.60;98341.86;231653;198;138493;-58
2023/12/20 08:09:59;;;;;;;6.70;3.90;;;;;;;7.36;66.08;98342.64;231489;202;137891;-60
2023/12/20 08:15:03;;;;;;;8.20;4.30;;;;;;;7.44;65.94;98352.40;231748;198;153325;-60
2023/12/20 08:20:07;;;;;;;6.20;3.70;;;;;;;7.38;65.98;98349.94;231766;199;138199;-60
2023/12/20 08:25:10;;;;;;;7.50;4.80;;;;;;;7.28;66.33;98348.57;231764;198;137577;-59
2023/12/20 08:30:14;;;;;;;5.90;4.50;;;;;;;7.25;66.53;98344.92;231675;206;154268;-59
2023/12/20 08:35:18;;;;;;;6.50;4.70;;;;;;;7.16;66.59;98338.20;231530;199;138640;-58
2023/12/20 08:40:22;;;;;;;7.40;5.00;;;;;;;7.10;66.93;98339.27;231881;198;137261;-59
2023/12/20 08:45:25;;;;;;;6.90;4.80;;;;;;;7.00;67.42;98335.10;231670;199;153443;-64
2023/12/20 08:50:29;;;;;;;5.90;4.90;;;;;;;7.01;67.60;98340.88;231755;198;137447;-57
2023/12/20 08:55:32;;;;;;;7.90;5.10;;;;;;;6.99;67.91;98338.67;231757;202;137446;-57
2023/12/20 09:00:35;;;;;;;86.90;58.80;;;;;;;6.97;68.18;98335.60;231689;205;153289;-59
2023/12/20 09:05:39;;;;;;;9.00;5.80;;;;;;;6.95;68.34;98349.49;231454;198;140764;-60
2023/12/20 09:10:42;;;;;;;7.50;5.30;;;;;;;6.97;68.38;98345.16;231720;202;137947;-59
2023/12/20 09:15:45;;;;;;;9.00;5.60;;;;;;;7.02;68.45;98344.46;231372;198;153273;-59
2023/12/20 09:20:48;;;;;;;6.40;5.20;;;;;;;7.11;68.34;98344.65;231454;199;139534;-55
2023/12/20 09:25:53;;;;;;;7.90;5.00;;;;;;;7.20;68.04;98339.73;231642;198;137715;-57
2023/12/20 09:30:59;;;;;;;7.50;5.50;;;;;;;7.08;68.13;98335.16;231695;205;153260;-56
2023/12/20 09:36:03;;;;;;;6.80;5.10;;;;;;;7.01;68.49;98335.59;231663;198;137541;-56
2023/12/20 09:41:06;;;;;;;6.80;5.00;;;;;;;6.89;69.25;98333.95;231668;203;138445;-56
2023/12/20 09:46:11;;;;;;;8.20;5.70;;;;;;;6.82;69.03;98326.63;231757;198;152740;-56
2023/12/20 09:51:15;;;;;;;7.90;5.70;;;;;;;6.90;69.00;98318.23;231656;199;137441;-57
2023/12/20 09:56:18;;;;;;;8.10;5.20;;;;;;;6.89;68.96;98313.16;231755;202;140194;-57
2023/12/20 10:01:23;;;;;;;6.80;5.20;;;;;;;6.94;69.03;98307.94;231678;199;154170;-57
2023/12/20 10:06:26;;;;;;;9.50;5.90;;;;;;;6.97;69.04;98305.66;231680;198;138591;-58
2023/12/20 10:11:30;;;;;;;7.70;5.20;;;;;;;7.04;68.94;98300.11;231693;206;137995;-57
2023/12/20 10:16:34;;;;;;;7.20;5.10;;;;;;;6.99;68.91;98298.80;231818;202;153225;-56
2023/12/20 10:21:37;;;;;;;5.60;4.90;;;;;;;6.85;69.42;98295.23;231657;202;138000;-56
2023/12/20 10:26:40;;;;;;;6.90;4.70;;;;;;;6.84;69.17;98297.59;231701;202;138009;-56
2023/12/20 10:31:45;;;;;;;6.20;4.90;;;;;;;6.80;69.14;98292.20;231630;198;153378;-57
2023/12/20 10:36:48;;;;;;;6.60;4.90;;;;;;;6.77;69.48;98295.91;231664;198;137480;-57
2023/12/20 10:41:51;;;;;;;6.30;4.70;;;;;;;6.77;69.25;98292.70;231723;198;137570;-57
2023/12/20 10:46:58;;;;;;;6.20;3.90;;;;;;;6.75;69.16;98293.71;231507;199;155264;-56
2023/12/20 10:52:03;;;;;;;7.50;4.50;;;;;;;6.77;69.22;98286.16;231783;198;137581;-58
2023/12/20 10:57:07;;;;;;;;;;;;;;;6.82;69.12;98277.77;231730;198;138032;-56
2023/12/20 11:02:10;;;;;;;7.60;4.20;;;;;;;6.85;68.87;98275.50;231726;198;154264;-55
2023/12/20 11:07:21;;;;;;;6.90;4.30;;;;;;;6.92;69.06;98272.96;231748;198;138741;-56
2023/12/20 11:13:09;;;;;;;5.70;4.40;;;;;;;6.99;69.02;98271.15;231652;199;137557;-55
2023/12/20 11:18:16;;;;;;;4.70;4.00;;;;;;;6.96;69.10;98272.17;231651;198;154131;-52
2023/12/20 11:23:19;;;;;;;6.70;4.10;;;;;;;6.86;69.41;98272.10;231739;198;137621;-55
2023/12/20 11:28:26;;;;;;;5.20;4.00;;;;;;;6.81;69.93;98272.36;231705;198;138534;-53
2023/12/20 11:33:40;;;;;;;5.20;3.40;;;;;;;6.88;70.09;98268.30;231671;206;153275;-55
2023/12/20 11:38:55;;;;;;;5.50;3.60;;;;;;;6.99;70.09;98269.04;231669;202;138921;-55
2023/12/20 11:44:00;;;;;;;5.50;3.90;;;;;;;6.99;70.13;98264.27;231677;205;137606;-56
2023/12/20 11:49:04;;;;;;;5.10;3.60;;;;;;;7.02;70.02;98258.06;231689;198;153255;-53
2023/12/20 11:54:08;;;;;;;6.60;3.70;;;;;;;6.93;70.14;98252.97;231692;205;137419;-57
2023/12/20 11:59:12;;;;;;;5.30;3.40;;;;;;;6.94;70.70;98260.36;231720;198;137963;-55
2023/12/20 12:04:25;;;;;;;5.20;3.20;;;;;;;6.93;70.73;98261.83;231692;199;154261;-57
2023/12/20 12:09:29;;;;;;;9.00;4.00;;;;;;;6.94;70.67;98259.81;231670;200;138842;-56
2023/12/20 12:14:32;;;;;;;5.50;3.40;;;;;;;6.97;70.89;98259.09;231678;198;137291;-58
2023/12/20 12:19:37;;;;;;;5.90;3.40;;;;;;;6.99;70.53;98262.16;231668;206;153623;-59
2023/12/20 12:24:41;;;;;;;4.50;3.60;;;;;;;6.99;70.54;98259.86;231746;206;137736;-61
2023/12/20 12:30:07;;;;;;;4.30;3.20;;;;;;;6.99;70.56;98255.10;231717;202;137435;-60
2023/12/20 12:35:11;;;;;;;4.40;3.20;;;;;;;6.94;70.48;98253.06;231691;205;153792;-58
2023/12/20 12:40:16;;;;;;;4.60;3.20;;;;;;;6.96;70.36;98255.29;231868;198;137501;-58
2023/12/20 12:45:19;;;;;;;5.40;3.70;;;;;;;7.01;70.06;98255.84;231703;199;138923;-63
2023/12/20 12:50:22;;;;;;;5.00;3.90;;;;;;;7.05;70.19;98257.02;231633;199;154333;-61
2023/12/20 12:55:26;;;;;;;7.10;4.40;;;;;;;7.09;70.27;98259.61;231715;199;137644;-59
2023/12/20 13:00:29;;;;;;;5.90;3.90;;;;;;;7.09;70.07;98262.77;231767;202;137534;-61
2023/12/20 13:05:32;;;;;;;7.10;4.40;;;;;;;7.05;70.22;98262.47;231705;198;153068;-62
2023/12/20 13:10:41;;;;;;;6.00;3.70;;;;;;;6.97;70.39;98253.98;231832;198;137593;-62
2023/12/20 13:15:51;;;;;;;5.40;3.50;;;;;;;6.97;70.78;98254.89;231752;205;140955;-60
2023/12/20 13:20:54;;;;;;;6.20;3.80;;;;;;;7.06;70.50;98267.20;231728;199;153054;-57
2023/12/20 13:25:57;;;;;;;6.30;3.70;;;;;;;7.05;70.44;98267.59;231637;198;137836;-59
2023/12/20 13:31:01;;;;;;;5.40;3.70;;;;;;;7.09;70.22;98271.61;231323;198;138710;-61
2023/12/20 13:36:05;;;;;;;5.00;4.00;;;;;;;7.07;70.07;98274.55;231661;202;153337;-61
2023/12/20 13:41:10;;;;;;;6.20;4.00;;;;;;;7.06;70.05;98277.38;231728;198;137929;-60
2023/12/20 13:46:14;;;;;;;8.80;3.90;;;;;;;7.01;69.95;98275.08;231777;202;137126;-60
2023/12/20 13:51:18;;;;;;;5.70;3.90;;;;;;;7.06;69.78;98275.83;231584;206;153978;-59
2023/12/20 13:56:22;;;;;;;6.80;4.10;;;;;;;7.10;69.34;98274.52;231622;202;138193;-61
2023/12/20 14:01:26;;;;;;;5.20;4.20;;;;;;;7.21;69.02;98273.35;231626;202;140533;-59
2023/12/20 14:06:29;;;;;;;6.10;4.40;;;;;;;7.22;68.74;98276.30;231667;198;154528;-60
2023/12/20 14:11:33;;;;;;;6.30;4.50;;;;;;;7.27;68.62;98276.13;231418;198;138297;-59
2023/12/20 14:16:36;;;;;;;6.30;4.50;;;;;;;7.34;68.13;98273.95;231709;206;138606;-60
2023/12/20 14:21:39;;;;;;;6.30;4.60;;;;;;;7.33;68.00;98271.73;231679;198;153848;-48
2023/12/20 14:26:42;;;;;;;6.20;4.40;;;;;;;7.41;67.76;98269.63;231606;198;138103;-46
2023/12/20 14:31:45;;;;;;;8.10;4.60;;;;;;;7.42;67.48;98271.14;231608;199;137118;-45
2023/12/20 14:36:49;;;;;;;7.00;4.40;;;;;;;7.41;67.53;98274.10;231650;203;153381;-45
2023/12/20 14:41:54;;;;;;;8.70;5.10;;;;;;;7.43;67.74;98275.73;231714;202;138500;-44
2023/12/20 14:46:57;;;;;;;7.70;4.50;;;;;;;7.48;67.55;98275.93;231641;202;138311;-43
2023/12/20 14:52:00;;;;;;;7.00;4.40;;;;;;;7.45;67.62;98279.59;231754;198;153360;-50
2023/12/20 14:57:04;;;;;;;6.80;4.30;;;;;;;7.46;67.62;98282.77;231656;198;137642;-46
2023/12/20 15:02:07;;;;;;;7.70;4.70;;;;;;;7.50;67.50;98281.46;231706;198;137918;-50
2023/12/20 15:07:11;;;;;;;5.70;4.10;;;;;;;7.62;67.29;98279.08;231712;203;154446;-49
2023/12/20 15:12:15;;;;;;;6.90;4.90;;;;;;;7.70;66.97;98275.09;231686;198;138215;-50
2023/12/20 15:17:18;;;;;;;6.60;4.20;;;;;;;7.67;66.77;98275.25;231717;199;140767;-47
2023/12/20 15:22:21;;;;;;;7.20;4.60;;;;;;;7.69;66.64;98283.43;231804;202;153308;-47
2023/12/20 15:27:25;;;;;;;6.30;4.60;;;;;;;7.62;66.69;98283.86;231696;206;137724;-46
2023/12/20 15:32:28;;;;;;;7.50;5.20;;;;;;;7.52;66.90;98285.73;231724;202;137944;-48
2023/12/20 15:37:31;;;;;;;6.10;4.80;;;;;;;7.41;67.10;98286.61;231740;202;153946;-46
2023/12/20 15:42:36;;;;;;;7.40;5.10;;;;;;;7.25;67.30;98284.55;231683;202;137330;-47
2023/12/20 15:47:39;;;;;;;6.90;5.10;;;;;;;7.19;67.62;98279.83;231651;198;137473;-47
2023/12/20 15:52:43;;;;;;;6.80;4.80;;;;;;;7.12;67.59;98280.02;231485;199;153072;-45
2023/12/20 15:57:46;;;;;;;7.80;4.90;;;;;;;7.10;67.65;98287.22;231707;198;138077;-48
2023/12/20 16:02:57;;;;;;;7.30;5.30;;;;;;;7.04;67.79;98280.36;231681;199;137401;-45
2023/12/20 16:08:00;;;;;;;7.80;5.70;;;;;;;7.06;68.00;98276.71;231693;198;152916;-47
2023/12/20 16:13:04;;;;;;;11.40;6.50;;;;;;;7.05;67.99;98280.27;231667;202;137399;-46
2023/12/20 16:18:10;;;;;;;10.60;6.40;;;;;;;7.05;67.86;98281.70;231836;199;138699;-46
2023/12/20 16:23:14;;;;;;;9.20;6.00;;;;;;;7.03;67.72;98281.45;231661;205;153340;-48
2023/12/20 16:28:17;;;;;;;10.30;6.70;;;;;;;6.95;67.80;98281.75;231798;198;138442;-47
2023/12/20 16:33:20;;;;;;;9.60;7.40;;;;;;;6.85;68.09;98279.18;231714;199;137589;-47
2023/12/20 16:38:23;;;;;;;9.20;6.70;;;;;;;6.80;68.05;98282.45;231735;198;153636;-46
2023/12/20 16:43:27;;;;;;;10.10;6.20;;;;;;;6.76;68.20;98272.50;231696;199;137497;-48
2023/12/20 16:48:30;;;;;;;10.20;6.30;;;;;;;6.79;67.97;98268.63;231597;199;137898;-48
2023/12/20 16:53:33;;;;;;;358.10;228.60;;;;;;;6.81;68.00;98271.15;231473;203;154423;-49
2023/12/20 16:58:36;;;;;;;12.40;8.20;;;;;;;6.88;67.81;98268.27;231750;203;138560;-48
2023/12/20 17:03:39;;;;;;;8.60;5.70;;;;;;;6.83;67.30;98269.04;231637;199;139298;-49
2023/12/20 17:08:43;;;;;;;10.70;5.80;;;;;;;6.78;67.40;98260.38;231601;205;153260;-46
2023/12/20 17:13:47;;;;;;;9.10;5.80;;;;;;;6.72;67.17;98254.08;231390;202;138694;-47
2023/12/20 17:18:50;;;;;;;8.60;6.10;;;;;;;6.61;67.26;98242.17;231668;199;137491;-51
2023/12/20 17:23:53;;;;;;;8.80;5.80;;;;;;;6.57;67.17;98248.41;231625;198;153278;-47
2023/12/20 17:28:56;;;;;;;10.10;5.60;;;;;;;6.54;67.16;98246.27;231606;198;138118;-45
2023/12/20 17:33:59;;;;;;;8.50;5.10;;;;;;;6.55;66.94;98244.84;231725;206;137757;-46
2023/12/20 17:39:04;;;;;;;9.20;5.60;;;;;;;6.54;66.74;98242.22;231654;199;153354;-47
2023/12/20 17:44:07;;;;;;;9.50;5.20;;;;;;;6.52;66.47;98237.05;231685;206;137487;-47
2023/12/20 17:49:10;;;;;;;8.80;5.00;;;;;;;6.51;66.41;98238.34;231672;203;139053;-48
2023/12/20 17:54:14;;;;;;;8.80;5.10;;;;;;;6.50;66.12;98237.02;231627;198;155529;-47
2023/12/20 17:59:17;;;;;;;8.80;5.30;;;;;;;6.54;65.99;98234.33;231621;198;138104;-47
2023/12/20 18:04:20;;;;;;;9.90;5.60;;;;;;;6.54;65.78;98235.05;231747;198;137648;-48
2023/12/20 18:09:23;;;;;;;9.80;5.60;;;;;;;6.51;65.55;98233.25;231727;198;154295;-45
2023/12/20 18:14:27;;;;;;;8.20;5.00;;;;;;;6.56;65.47;98233.14;231602;198;137869;-48
2023/12/20 18:19:30;;;;;;;7.90;4.90;;;;;;;6.57;65.05;98232.59;231637;202;139161;-49
2023/12/20 18:24:34;;;;;;;21.40;10.70;;;;;;;6.60;65.45;98228.88;231667;206;153332;-49
2023/12/20 18:29:37;;;;;;;9.60;6.20;;;;;;;6.66;64.66;98238.02;231708;199;140657;-50
2023/12/20 18:34:40;;;;;;;13.40;4.70;;;;;;;6.64;64.38;98237.04;231741;202;137776;-50
2023/12/20 18:39:43;;;;;;;8.40;4.50;;;;;;;6.63;64.39;98236.04;231397;206;153246;-50
2023/12/20 18:44:47;;;;;;;8.60;4.50;;;;;;;6.64;64.36;98231.75;231701;198;138729;-48
2023/12/20 18:49:50;;;;;;;8.80;4.50;;;;;;;6.66;64.21;98238.39;231710;198;139293;-50
2023/12/20 18:54:53;;;;;;;8.90;4.70;;;;;;;6.66;64.12;98237.66;231385;199;153442;-51
2023/12/20 18:59:57;;;;;;;8.00;3.80;;;;;;;6.70;63.81;98231.42;231492;206;138409;-49
2023/12/20 19:05:04;;;;;;;322.90;206.70;;;;;;;6.69;63.77;98236.08;231516;198;138853;-46
2023/12/20 19:10:08;;;;;;;12.70;7.50;;;;;;;6.83;63.86;98245.65;231769;198;153757;-46
2023/12/20 19:15:11;;;;;;;7.80;4.50;;;;;;;6.83;62.98;98251.98;231708;198;138603;-47
2023/12/20 19:20:15;;;;;;;7.60;4.00;;;;;;;6.80;62.66;98242.66;231690;198;138623;-46
2023/12/20 19:25:18;;;;;;;8.80;5.40;;;;;;;6.83;63.59;98251.26;231634;198;153176;-46
2023/12/20 19:30:21;;;;;;;7.10;4.10;;;;;;;6.88;62.22;98245.12;231525;199;137878;-45
2023/12/20 19:35:25;;;;;;;6.20;3.40;;;;;;;6.94;61.96;98245.70;231525;205;138695;-44
2023/12/20 19:40:29;;;;;;;5.20;3.40;;;;;;;6.92;61.34;98240.34;231807;199;153091;-47
2023/12/20 19:45:32;;;;;;;6.50;2.90;;;;;;;6.90;61.08;98229.58;231198;197;138673;-45
2023/12/20 19:50:35;;;;;;;4.80;3.00;;;;;;;6.85;60.81;98219.09;231402;198;140365;-49
2023/12/20 19:55:40;;;;;;;5.80;2.90;;;;;;;6.83;60.58;98198.39;231709;199;152905;-45
2023/12/20 20:00:43;;;;;;;7.20;3.20;;;;;;;6.79;60.45;98212.39;231704;199;137817;-47
2023/12/20 20:05:57;;;;;;;9.20;4.10;;;;;;;6.82;60.71;98223.46;231662;206;138842;-45
2023/12/20 20:11:01;;;;;;;6.60;3.00;;;;;;;6.85;60.29;98225.06;231680;198;153681;-47
2023/12/20 20:16:04;;;;;;;5.50;2.70;;;;;;;6.81;60.28;98231.09;231818;198;138398;-45
2023/12/20 20:21:07;;;;;;;5.40;3.10;;;;;;;6.82;60.42;98226.46;231738;198;139040;-57
2023/12/20 20:26:11;;;;;;;4.60;3.00;;;;;;;6.84;60.44;98225.48;231566;198;153916;-58
2023/12/20 20:31:14;;;;;;;7.50;3.40;;;;;;;6.87;60.24;98230.42;231779;206;138064;-57
2023/12/20 20:36:18;;;;;;;11.40;7.40;;;;;;;6.96;61.13;98224.04;231761;205;137367;-57
2023/12/20 20:41:22;;;;;;;6.00;3.50;;;;;;;7.04;59.93;98226.71;231710;198;153609;-57
2023/12/20 20:46:26;;;;;;;7.00;3.10;;;;;;;6.94;59.80;98224.02;231857;198;138207;-58
2023/12/20 20:51:30;;;;;;;4.20;2.60;;;;;;;6.86;59.99;98222.02;231689;205;139849;-55
2023/12/20 20:56:34;;;;;;;6.10;3.00;;;;;;;6.82;60.08;98207.61;231705;205;153870;-55
2023/12/20 21:01:37;;;;;;;6.80;2.60;;;;;;;6.83;60.06;98201.03;231673;199;139264;-56
2023/12/20 21:06:41;;;;;;;9.90;3.10;;;;;;;6.82;60.18;98210.23;231662;203;137841;-56
2023/12/20 21:11:44;;;;;;;5.80;3.20;;;;;;;6.82;60.12;98206.73;231838;199;154731;-57
2023/12/20 21:16:47;;;;;;;5.20;2.80;;;;;;;6.80;60.13;98213.71;231495;201;137813;-57
2023/12/20 21:21:51;;;;;;;5.20;2.60;;;;;;;6.73;60.26;98208.15;231908;202;137111;-56
2023/12/20 21:26:54;;;;;;;6.20;2.80;;;;;;;6.72;60.12;98212.45;231738;198;153127;-57
2023/12/20 21:31:58;;;;;;;4.90;2.80;;;;;;;6.70;60.28;98212.54;231677;199;138157;-55
2023/12/20 21:37:01;;;;;;;7.90;3.20;;;;;;;6.61;60.34;98193.01;231590;199;140306;-56
2023/12/20 21:42:05;;;;;;;8.40;3.30;;;;;;;6.55;60.53;98187.92;231734;199;154733;-54
2023/12/20 21:47:08;;;;;;;7.80;3.30;;;;;;;6.53;60.52;98191.75;231751;202;150361;-56
2023/12/20 21:52:11;;;;;;;5.80;3.30;;;;;;;6.46;60.68;98188.08;231843;206;138372;-56
2023/12/20 21:57:14;;;;;;;5.90;2.90;;;;;;;6.42;60.84;98198.56;231551;198;154421;-56
2023/12/20 22:02:17;;;;;;;5.30;2.60;;;;;;;6.39;60.88;98206.60;231708;199;138732;-64
2023/12/20 22:07:21;;;;;;;6.30;2.80;;;;;;;6.37;60.85;98219.63;231742;203;137425;-58
2023/12/20 22:12:24;;;;;;;5.80;2.50;;;;;;;6.43;61.07;98215.25;231750;198;154652;-54
2023/12/20 22:17:27;;;;;;;5.20;2.80;;;;;;;6.45;60.92;98211.80;231704;199;139340;-56
2023/12/20 22:22:32;;;;;;;5.70;3.10;;;;;;;6.38;60.78;98206.52;231869;198;138462;-59
2023/12/20 22:27:35;;;;;;;6.90;2.80;;;;;;;6.33;61.12;98200.80;231732;198;153948;-55
2023/12/20 22:32:38;;;;;;;6.10;3.00;;;;;;;6.26;61.40;98196.68;231738;199;139130;-55
2023/12/20 22:37:44;;;;;;;5.40;2.80;;;;;;;6.28;61.66;98193.53;231724;198;137575;-56
2023/12/20 22:42:47;;;;;;;;;;;;;;;6.29;61.50;98190.14;231727;200;154144;-56
2023/12/20 22:47:50;;;;;;;5.80;2.90;;;;;;;6.31;61.72;98184.40;231787;199;137618;-55
2023/12/20 22:52:54;;;;;;;7.30;2.80;;;;;;;6.32;61.67;98180.30;231785;202;137433;-56
2023/12/20 22:57:57;;;;;;;4.80;2.50;;;;;;;6.31;61.79;98177.00;231797;198;153844;-55
2023/12/20 23:03:00;;;;;;;6.90;2.80;;;;;;;6.24;61.83;98164.69;231773;199;138075;-58
2023/12/20 23:08:04;;;;;;;6.30;2.80;;;;;;;6.25;62.13;98162.70;231648;198;138494;-56
2023/12/20 23:13:07;;;;;;;6.40;2.60;;;;;;;6.28;62.13;98156.41;231710;198;153516;-56
2023/12/20 23:18:11;;;;;;;5.60;2.70;;;;;;;6.29;62.05;98153.87;231747;199;137770;-57
2023/12/20 23:23:14;;;;;;;6.60;3.10;;;;;;;6.29;62.14;98157.19;231813;198;141192;-57
2023/12/20 23:28:17;;;;;;;6.00;2.90;;;;;;;6.35;62.10;98155.08;231783;199;153552;-56
2023/12/20 23:33:21;;;;;;;6.80;2.50;;;;;;;6.38;62.15;98157.70;231667;198;138074;-56
2023/12/20 23:38:24;;;;;;;4.90;2.80;;;;;;;6.43;62.08;98149.86;231641;198;137974;-57
2023/12/20 23:43:27;;;;;;;6.60;2.60;;;;;;;6.47;62.05;98141.73;231704;198;153431;-56
2023/12/20 23:48:33;;;;;;;6.30;3.10;;;;;;;6.46;62.05;98134.69;231748;203;137615;-57